sensor_id;sensor_type;location;lat;lon;timestamp;P1;durP1;ratioP1;P2;durP2;ratioP2
31037;SDS011;17702;47.590;7.666;2023-08-30T00:01:48;11.23;;;9.15;;
31037;SDS011;17702;47.590;7.666;2023-08-30T00:04:14;12.30;;;10.73;;
31037;SDS011;17702;47.590;7.666;2023-08-30T00:06:39;13.55;;;12.30;;
31037;SDS011;17702;47.590;7.666;2023-08-30T00:09:05;14.57;;;12.60;;
31037;SDS011;17702;47.590;7.666;2023-08-30T00:11:30;8.93;;;8.10;;
31037;SDS011;17702;47.590;7.666;2023-08-30T00:14:03;10.40;;;9.48;;
31037;SDS011;17702;47.590;7.666;2023-08-30T00:16:31;11.70;;;10.50;;
31037;SDS011;17702;47.590;7.666;2023-08-30T00:18:58;12.07;;;9.98;;
31037;SDS011;17702;47.590;7.666;2023-08-30T00:21:24;12.18;;;10.82;;
31037;SDS011;17702;47.590;7.666;2023-08-30T00:23:50;11.13;;;10.20;;
31037;SDS011;17702;47.590;7.666;2023-08-30T00:26:16;11.50;;;10.32;;
31037;SDS011;17702;47.590;7.666;2023-08-30T00:28:41;12.50;;;10.90;;
31037;SDS011;17702;47.590;7.666;2023-08-30T00:31:07;13.43;;;9.70;;
31037;SDS011;17702;47.590;7.666;2023-08-30T00:33:33;10.27;;;9.38;;
31037;SDS011;17702;47.590;7.666;2023-08-30T00:35:58;12.02;;;10.65;;
31037;SDS011;17702;47.590;7.666;2023-08-30T00:38:25;11.23;;;9.95;;
31037;SDS011;17702;47.590;7.666;2023-08-30T00:40:52;14.15;;;12.70;;
31037;SDS011;17702;47.590;7.666;2023-08-30T00:43:18;16.50;;;14.27;;
31037;SDS011;17702;47.590;7.666;2023-08-30T00:45:44;14.90;;;13.38;;
31037;SDS011;17702;47.590;7.666;2023-08-30T00:48:10;12.13;;;10.52;;
31037;SDS011;17702;47.590;7.666;2023-08-30T00:50:36;13.65;;;9.63;;
31037;SDS011;17702;47.590;7.666;2023-08-30T00:53:03;13.18;;;9.60;;
31037;SDS011;17702;47.590;7.666;2023-08-30T00:55:32;10.13;;;9.02;;
31037;SDS011;17702;47.590;7.666;2023-08-30T00:57:59;15.90;;;10.98;;
31037;SDS011;17702;47.590;7.666;2023-08-30T01:00:26;11.48;;;10.38;;
31037;SDS011;17702;47.590;7.666;2023-08-30T01:02:56;12.35;;;11.00;;
31037;SDS011;17702;47.590;7.666;2023-08-30T01:05:22;12.98;;;10.80;;
31037;SDS011;17702;47.590;7.666;2023-08-30T01:07:48;18.27;;;15.50;;
31037;SDS011;17702;47.590;7.666;2023-08-30T01:10:15;24.27;;;18.92;;
31037;SDS011;17702;47.590;7.666;2023-08-30T01:12:45;18.35;;;14.93;;
31037;SDS011;17702;47.590;7.666;2023-08-30T01:17:47;11.55;;;9.98;;
31037;SDS011;17702;47.590;7.666;2023-08-30T01:20:14;9.60;;;8.73;;
31037;SDS011;17702;47.590;7.666;2023-08-30T01:25:57;8.25;;;6.28;;
31037;SDS011;17702;47.590;7.666;2023-08-30T01:28:39;13.00;;;12.00;;
31037;SDS011;17702;47.590;7.666;2023-08-30T01:31:06;6.68;;;5.32;;
31037;SDS011;17702;47.590;7.666;2023-08-30T01:33:33;8.55;;;5.82;;
31037;SDS011;17702;47.590;7.666;2023-08-30T01:35:59;8.40;;;6.82;;
31037;SDS011;17702;47.590;7.666;2023-08-30T01:38:29;8.10;;;7.35;;
31037;SDS011;17702;47.590;7.666;2023-08-30T01:40:57;7.88;;;7.18;;
31037;SDS011;17702;47.590;7.666;2023-08-30T01:43:24;9.32;;;8.38;;
31037;SDS011;17702;47.590;7.666;2023-08-30T01:45:51;11.43;;;10.25;;
31037;SDS011;17702;47.590;7.666;2023-08-30T01:48:17;10.98;;;9.32;;
31037;SDS011;17702;47.590;7.666;2023-08-30T01:50:44;10.38;;;9.38;;
31037;SDS011;17702;47.590;7.666;2023-08-30T01:53:11;9.07;;;8.18;;
31037;SDS011;17702;47.590;7.666;2023-08-30T01:55:38;9.90;;;9.10;;
31037;SDS011;17702;47.590;7.666;2023-08-30T01:58:05;11.23;;;10.10;;
31037;SDS011;17702;47.590;7.666;2023-08-30T02:00:31;14.15;;;11.20;;
31037;SDS011;17702;47.590;7.666;2023-08-30T02:02:57;13.32;;;11.52;;
31037;SDS011;17702;47.590;7.666;2023-08-30T02:05:23;13.68;;;11.57;;
31037;SDS011;17702;47.590;7.666;2023-08-30T02:10:28;14.25;;;12.48;;
31037;SDS011;17702;47.590;7.666;2023-08-30T02:12:59;16.17;;;13.50;;
31037;SDS011;17702;47.590;7.666;2023-08-30T02:15:26;15.05;;;13.48;;
31037;SDS011;17702;47.590;7.666;2023-08-30T02:17:54;14.80;;;13.30;;
31037;SDS011;17702;47.590;7.666;2023-08-30T02:20:20;16.80;;;14.55;;
31037;SDS011;17702;47.590;7.666;2023-08-30T02:22:47;15.43;;;12.88;;
31037;SDS011;17702;47.590;7.666;2023-08-30T02:25:12;16.45;;;12.23;;
31037;SDS011;17702;47.590;7.666;2023-08-30T02:27:38;14.20;;;12.57;;
31037;SDS011;17702;47.590;7.666;2023-08-30T02:30:04;8.15;;;7.30;;
31037;SDS011;17702;47.590;7.666;2023-08-30T02:32:30;7.18;;;6.47;;
31037;SDS011;17702;47.590;7.666;2023-08-30T02:34:56;9.55;;;6.13;;
31037;SDS011;17702;47.590;7.666;2023-08-30T02:37:21;6.65;;;5.45;;
31037;SDS011;17702;47.590;7.666;2023-08-30T02:39:47;6.32;;;5.20;;
31037;SDS011;17702;47.590;7.666;2023-08-30T02:42:13;5.40;;;5.10;;
31037;SDS011;17702;47.590;7.666;2023-08-30T02:44:39;5.57;;;4.57;;
31037;SDS011;17702;47.590;7.666;2023-08-30T02:47:04;4.55;;;4.25;;
31037;SDS011;17702;47.590;7.666;2023-08-30T02:49:30;4.88;;;4.57;;
31037;SDS011;17702;47.590;7.666;2023-08-30T02:51:55;6.47;;;5.07;;
31037;SDS011;17702;47.590;7.666;2023-08-30T02:54:21;5.70;;;4.80;;
31037;SDS011;17702;47.590;7.666;2023-08-30T02:56:47;4.70;;;4.40;;
31037;SDS011;17702;47.590;7.666;2023-08-30T02:59:13;5.45;;;4.78;;
31037;SDS011;17702;47.590;7.666;2023-08-30T03:01:39;5.22;;;4.75;;
31037;SDS011;17702;47.590;7.666;2023-08-30T03:04:05;8.20;;;6.25;;
31037;SDS011;17702;47.590;7.666;2023-08-30T03:06:32;7.85;;;7.05;;
31037;SDS011;17702;47.590;7.666;2023-08-30T03:08:58;11.73;;;9.60;;
31037;SDS011;17702;47.590;7.666;2023-08-30T03:11:24;19.55;;;14.35;;
31037;SDS011;17702;47.590;7.666;2023-08-30T03:13:49;15.43;;;13.82;;
31037;SDS011;17702;47.590;7.666;2023-08-30T03:16:15;18.25;;;15.80;;
31037;SDS011;17702;47.590;7.666;2023-08-30T03:18:42;16.92;;;15.23;;
31037;SDS011;17702;47.590;7.666;2023-08-30T03:21:08;17.13;;;15.32;;
31037;SDS011;17702;47.590;7.666;2023-08-30T03:23:35;16.00;;;12.25;;
31037;SDS011;17702;47.590;7.666;2023-08-30T03:26:08;15.93;;;10.75;;
31037;SDS011;17702;47.590;7.666;2023-08-30T03:28:34;14.30;;;11.32;;
31037;SDS011;17702;47.590;7.666;2023-08-30T03:31:00;15.95;;;13.80;;
31037;SDS011;17702;47.590;7.666;2023-08-30T03:33:25;15.90;;;14.20;;
31037;SDS011;17702;47.590;7.666;2023-08-30T03:35:51;15.98;;;14.27;;
31037;SDS011;17702;47.590;7.666;2023-08-30T03:38:16;16.38;;;14.15;;
31037;SDS011;17702;47.590;7.666;2023-08-30T03:40:42;16.48;;;14.77;;
31037;SDS011;17702;47.590;7.666;2023-08-30T03:43:08;15.52;;;13.90;;
31037;SDS011;17702;47.590;7.666;2023-08-30T03:45:34;14.40;;;13.00;;
31037;SDS011;17702;47.590;7.666;2023-08-30T03:48:03;14.10;;;12.38;;
31037;SDS011;17702;47.590;7.666;2023-08-30T03:50:29;12.68;;;11.35;;
31037;SDS011;17702;47.590;7.666;2023-08-30T03:52:55;12.60;;;11.40;;
31037;SDS011;17702;47.590;7.666;2023-08-30T03:55:21;12.52;;;11.43;;
31037;SDS011;17702;47.590;7.666;2023-08-30T03:57:47;13.88;;;12.45;;
31037;SDS011;17702;47.590;7.666;2023-08-30T04:00:13;12.88;;;11.68;;
31037;SDS011;17702;47.590;7.666;2023-08-30T04:02:39;14.55;;;13.05;;
31037;SDS011;17702;47.590;7.666;2023-08-30T04:05:04;14.38;;;12.88;;
31037;SDS011;17702;47.590;7.666;2023-08-30T04:07:33;15.15;;;13.60;;
31037;SDS011;17702;47.590;7.666;2023-08-30T04:10:00;13.30;;;11.88;;
31037;SDS011;17702;47.590;7.666;2023-08-30T04:12:27;14.00;;;12.45;;
31037;SDS011;17702;47.590;7.666;2023-08-30T04:14:53;14.48;;;12.73;;
31037;SDS011;17702;47.590;7.666;2023-08-30T04:17:19;16.45;;;14.52;;
31037;SDS011;17702;47.590;7.666;2023-08-30T04:19:44;16.85;;;15.10;;
31037;SDS011;17702;47.590;7.666;2023-08-30T04:22:10;19.60;;;16.17;;
31037;SDS011;17702;47.590;7.666;2023-08-30T04:24:35;18.00;;;15.02;;
31037;SDS011;17702;47.590;7.666;2023-08-30T04:27:01;16.90;;;15.10;;
31037;SDS011;17702;47.590;7.666;2023-08-30T04:29:26;15.90;;;14.25;;
31037;SDS011;17702;47.590;7.666;2023-08-30T04:31:52;15.45;;;13.20;;
31037;SDS011;17702;47.590;7.666;2023-08-30T04:34:19;18.00;;;13.35;;
31037;SDS011;17702;47.590;7.666;2023-08-30T04:36:44;16.48;;;13.30;;
31037;SDS011;17702;47.590;7.666;2023-08-30T04:39:10;15.20;;;13.02;;
31037;SDS011;17702;47.590;7.666;2023-08-30T04:41:38;17.50;;;14.02;;
31037;SDS011;17702;47.590;7.666;2023-08-30T04:44:04;15.60;;;13.80;;
31037;SDS011;17702;47.590;7.666;2023-08-30T04:46:29;14.27;;;12.77;;
31037;SDS011;17702;47.590;7.666;2023-08-30T04:48:55;17.00;;;13.70;;
31037;SDS011;17702;47.590;7.666;2023-08-30T04:51:21;16.20;;;14.13;;
31037;SDS011;17702;47.590;7.666;2023-08-30T04:53:46;15.68;;;13.98;;
31037;SDS011;17702;47.590;7.666;2023-08-30T04:56:15;15.43;;;13.63;;
31037;SDS011;17702;47.590;7.666;2023-08-30T04:58:42;19.92;;;13.80;;
31037;SDS011;17702;47.590;7.666;2023-08-30T05:01:08;16.88;;;13.25;;
31037;SDS011;17702;47.590;7.666;2023-08-30T05:03:34;15.43;;;13.82;;
31037;SDS011;17702;47.590;7.666;2023-08-30T05:06:00;16.13;;;13.55;;
31037;SDS011;17702;47.590;7.666;2023-08-30T05:08:26;15.65;;;13.50;;
31037;SDS011;17702;47.590;7.666;2023-08-30T05:10:55;14.90;;;13.43;;
31037;SDS011;17702;47.590;7.666;2023-08-30T05:13:20;14.13;;;12.73;;
31037;SDS011;17702;47.590;7.666;2023-08-30T05:15:46;13.63;;;12.13;;
31037;SDS011;17702;47.590;7.666;2023-08-30T05:18:11;18.23;;;12.85;;
31037;SDS011;17702;47.590;7.666;2023-08-30T05:20:37;14.90;;;12.38;;
31037;SDS011;17702;47.590;7.666;2023-08-30T05:23:03;17.13;;;13.13;;
31037;SDS011;17702;47.590;7.666;2023-08-30T05:25:28;15.45;;;13.88;;
31037;SDS011;17702;47.590;7.666;2023-08-30T05:27:54;14.75;;;12.70;;
31037;SDS011;17702;47.590;7.666;2023-08-30T05:30:19;16.48;;;12.93;;
31037;SDS011;17702;47.590;7.666;2023-08-30T05:32:45;15.32;;;11.80;;
31037;SDS011;17702;47.590;7.666;2023-08-30T05:35:10;14.35;;;12.80;;
31037;SDS011;17702;47.590;7.666;2023-08-30T05:37:36;15.43;;;12.77;;
31037;SDS011;17702;47.590;7.666;2023-08-30T05:40:02;15.25;;;12.65;;
31037;SDS011;17702;47.590;7.666;2023-08-30T05:42:28;14.48;;;13.05;;
31037;SDS011;17702;47.590;7.666;2023-08-30T05:44:54;14.13;;;12.82;;
31037;SDS011;17702;47.590;7.666;2023-08-30T05:47:20;14.40;;;12.13;;
31037;SDS011;17702;47.590;7.666;2023-08-30T05:49:46;13.65;;;12.35;;
31037;SDS011;17702;47.590;7.666;2023-08-30T05:52:12;13.60;;;12.25;;
31037;SDS011;17702;47.590;7.666;2023-08-30T05:54:37;15.38;;;12.38;;
31037;SDS011;17702;47.590;7.666;2023-08-30T05:57:03;16.42;;;13.15;;
31037;SDS011;17702;47.590;7.666;2023-08-30T05:59:29;16.38;;;13.55;;
31037;SDS011;17702;47.590;7.666;2023-08-30T06:01:54;14.05;;;12.63;;
31037;SDS011;17702;47.590;7.666;2023-08-30T06:04:20;15.30;;;13.63;;
31037;SDS011;17702;47.590;7.666;2023-08-30T06:06:45;14.35;;;12.88;;
31037;SDS011;17702;47.590;7.666;2023-08-30T06:09:11;13.98;;;12.65;;
31037;SDS011;17702;47.590;7.666;2023-08-30T06:11:40;14.10;;;12.63;;
31037;SDS011;17702;47.590;7.666;2023-08-30T06:14:05;16.88;;;14.20;;
31037;SDS011;17702;47.590;7.666;2023-08-30T06:16:31;16.10;;;13.38;;
31037;SDS011;17702;47.590;7.666;2023-08-30T06:18:56;16.50;;;13.40;;
31037;SDS011;17702;47.590;7.666;2023-08-30T06:21:24;16.75;;;13.55;;
31037;SDS011;17702;47.590;7.666;2023-08-30T06:23:50;15.32;;;13.43;;
31037;SDS011;17702;47.590;7.666;2023-08-30T06:26:16;15.85;;;13.95;;
31037;SDS011;17702;47.590;7.666;2023-08-30T06:28:41;16.13;;;13.32;;
31037;SDS011;17702;47.590;7.666;2023-08-30T06:31:07;14.38;;;12.85;;
31037;SDS011;17702;47.590;7.666;2023-08-30T06:33:33;14.50;;;13.20;;
31037;SDS011;17702;47.590;7.666;2023-08-30T06:35:59;14.20;;;12.70;;
31037;SDS011;17702;47.590;7.666;2023-08-30T06:38:24;15.48;;;13.32;;
31037;SDS011;17702;47.590;7.666;2023-08-30T06:40:50;14.95;;;13.45;;
31037;SDS011;17702;47.590;7.666;2023-08-30T06:43:16;15.63;;;13.55;;
31037;SDS011;17702;47.590;7.666;2023-08-30T06:45:41;14.00;;;12.68;;
31037;SDS011;17702;47.590;7.666;2023-08-30T06:48:08;14.45;;;12.80;;
31037;SDS011;17702;47.590;7.666;2023-08-30T06:50:33;17.92;;;12.60;;
31037;SDS011;17702;47.590;7.666;2023-08-30T06:52:59;14.30;;;12.88;;
31037;SDS011;17702;47.590;7.666;2023-08-30T06:55:26;14.57;;;13.07;;
31037;SDS011;17702;47.590;7.666;2023-08-30T06:57:51;14.57;;;13.20;;
31037;SDS011;17702;47.590;7.666;2023-08-30T07:00:17;15.63;;;12.88;;
31037;SDS011;17702;47.590;7.666;2023-08-30T07:02:43;14.95;;;13.05;;
31037;SDS011;17702;47.590;7.666;2023-08-30T07:05:10;25.08;;;17.60;;
31037;SDS011;17702;47.590;7.666;2023-08-30T07:07:37;57.55;;;44.05;;
31037;SDS011;17702;47.590;7.666;2023-08-30T07:10:03;16.40;;;13.30;;
31037;SDS011;17702;47.590;7.666;2023-08-30T07:12:29;21.10;;;17.38;;
31037;SDS011;17702;47.590;7.666;2023-08-30T07:14:55;15.75;;;14.15;;
31037;SDS011;17702;47.590;7.666;2023-08-30T07:17:20;14.07;;;12.65;;
31037;SDS011;17702;47.590;7.666;2023-08-30T07:19:46;14.00;;;12.60;;
31037;SDS011;17702;47.590;7.666;2023-08-30T07:22:12;13.77;;;12.27;;
31037;SDS011;17702;47.590;7.666;2023-08-30T07:24:38;15.70;;;13.75;;
31037;SDS011;17702;47.590;7.666;2023-08-30T07:27:03;19.27;;;12.70;;
31037;SDS011;17702;47.590;7.666;2023-08-30T07:29:29;14.77;;;13.15;;
31037;SDS011;17702;47.590;7.666;2023-08-30T07:31:55;14.35;;;12.95;;
31037;SDS011;17702;47.590;7.666;2023-08-30T07:34:21;13.32;;;11.98;;
31037;SDS011;17702;47.590;7.666;2023-08-30T07:36:46;14.52;;;13.13;;
31037;SDS011;17702;47.590;7.666;2023-08-30T07:39:12;13.43;;;12.02;;
31037;SDS011;17702;47.590;7.666;2023-08-30T07:41:38;13.40;;;12.00;;
31037;SDS011;17702;47.590;7.666;2023-08-30T07:44:04;25.60;;;20.35;;
31037;SDS011;17702;47.590;7.666;2023-08-30T07:46:30;71.93;;;60.28;;
31037;SDS011;17702;47.590;7.666;2023-08-30T07:48:55;11.82;;;10.80;;
31037;SDS011;17702;47.590;7.666;2023-08-30T07:51:21;11.82;;;10.70;;
31037;SDS011;17702;47.590;7.666;2023-08-30T07:53:46;11.93;;;10.77;;
31037;SDS011;17702;47.590;7.666;2023-08-30T07:56:12;11.85;;;10.80;;
31037;SDS011;17702;47.590;7.666;2023-08-30T07:58:37;12.07;;;10.77;;
31037;SDS011;17702;47.590;7.666;2023-08-30T08:01:05;11.20;;;10.25;;
31037;SDS011;17702;47.590;7.666;2023-08-30T08:03:30;14.13;;;10.63;;
31037;SDS011;17702;47.590;7.666;2023-08-30T08:05:57;10.77;;;9.63;;
31037;SDS011;17702;47.590;7.666;2023-08-30T08:08:24;15.70;;;13.95;;
31037;SDS011;17702;47.590;7.666;2023-08-30T08:10:50;12.23;;;11.05;;
31037;SDS011;17702;47.590;7.666;2023-08-30T08:13:16;20.35;;;18.25;;
31037;SDS011;17702;47.590;7.666;2023-08-30T08:15:41;10.77;;;9.20;;
31037;SDS011;17702;47.590;7.666;2023-08-30T08:18:09;9.73;;;8.82;;
31037;SDS011;17702;47.590;7.666;2023-08-30T08:20:34;8.77;;;8.07;;
31037;SDS011;17702;47.590;7.666;2023-08-30T08:23:01;7.80;;;7.03;;
31037;SDS011;17702;47.590;7.666;2023-08-30T08:25:27;8.85;;;7.10;;
31037;SDS011;17702;47.590;7.666;2023-08-30T08:27:53;7.30;;;6.80;;
31037;SDS011;17702;47.590;7.666;2023-08-30T08:30:19;6.22;;;5.90;;
31037;SDS011;17702;47.590;7.666;2023-08-30T08:32:46;5.70;;;5.25;;
31037;SDS011;17702;47.590;7.666;2023-08-30T08:35:14;6.28;;;5.78;;
31037;SDS011;17702;47.590;7.666;2023-08-30T08:37:40;5.13;;;4.60;;
31037;SDS011;17702;47.590;7.666;2023-08-30T08:40:06;5.25;;;4.07;;
31037;SDS011;17702;47.590;7.666;2023-08-30T08:42:35;4.82;;;3.75;;
31037;SDS011;17702;47.590;7.666;2023-08-30T08:45:02;4.32;;;4.03;;
31037;SDS011;17702;47.590;7.666;2023-08-30T08:47:32;4.00;;;3.70;;
31037;SDS011;17702;47.590;7.666;2023-08-30T08:49:58;3.25;;;3.03;;
31037;SDS011;17702;47.590;7.666;2023-08-30T08:52:25;3.13;;;2.78;;
31037;SDS011;17702;47.590;7.666;2023-08-30T08:54:51;5.95;;;5.45;;
31037;SDS011;17702;47.590;7.666;2023-08-30T08:57:17;3.40;;;3.15;;
31037;SDS011;17702;47.590;7.666;2023-08-30T08:59:43;3.30;;;3.10;;
31037;SDS011;17702;47.590;7.666;2023-08-30T09:02:10;3.00;;;2.90;;
31037;SDS011;17702;47.590;7.666;2023-08-30T09:04:38;10.35;;;3.17;;
31037;SDS011;17702;47.590;7.666;2023-08-30T09:07:04;2.92;;;2.78;;
31037;SDS011;17702;47.590;7.666;2023-08-30T09:09:30;7.20;;;3.10;;
31037;SDS011;17702;47.590;7.666;2023-08-30T09:11:55;3.15;;;2.85;;
31037;SDS011;17702;47.590;7.666;2023-08-30T09:14:21;2.53;;;2.42;;
31037;SDS011;17702;47.590;7.666;2023-08-30T09:17:00;2.50;;;2.40;;
31037;SDS011;17702;47.590;7.666;2023-08-30T09:19:27;3.03;;;2.42;;
31037;SDS011;17702;47.590;7.666;2023-08-30T09:21:57;2.83;;;2.50;;
31037;SDS011;17702;47.590;7.666;2023-08-30T09:24:25;2.25;;;2.13;;
31037;SDS011;17702;47.590;7.666;2023-08-30T09:26:54;2.30;;;2.20;;
31037;SDS011;17702;47.590;7.666;2023-08-30T09:29:20;2.28;;;2.17;;
31037;SDS011;17702;47.590;7.666;2023-08-30T09:31:46;2.97;;;2.10;;
31037;SDS011;17702;47.590;7.666;2023-08-30T09:34:16;1.98;;;1.88;;
31037;SDS011;17702;47.590;7.666;2023-08-30T09:36:42;2.67;;;2.47;;
31037;SDS011;17702;47.590;7.666;2023-08-30T09:39:13;2.33;;;2.22;;
31037;SDS011;17702;47.590;7.666;2023-08-30T09:41:43;2.53;;;2.30;;
31037;SDS011;17702;47.590;7.666;2023-08-30T09:44:10;2.63;;;2.42;;
31037;SDS011;17702;47.590;7.666;2023-08-30T09:46:46;3.30;;;3.00;;
31037;SDS011;17702;47.590;7.666;2023-08-30T09:49:18;2.92;;;2.72;;
31037;SDS011;17702;47.590;7.666;2023-08-30T09:51:48;4.00;;;3.37;;
31037;SDS011;17702;47.590;7.666;2023-08-30T09:54:26;3.53;;;3.08;;
31037;SDS011;17702;47.590;7.666;2023-08-30T09:56:53;3.08;;;2.88;;
31037;SDS011;17702;47.590;7.666;2023-08-30T09:59:21;4.13;;;2.90;;
31037;SDS011;17702;47.590;7.666;2023-08-30T10:01:48;3.20;;;3.00;;
31037;SDS011;17702;47.590;7.666;2023-08-30T10:04:14;3.85;;;3.55;;
31037;SDS011;17702;47.590;7.666;2023-08-30T10:06:40;3.63;;;3.10;;
31037;SDS011;17702;47.590;7.666;2023-08-30T10:09:07;3.63;;;3.42;;
31037;SDS011;17702;47.590;7.666;2023-08-30T10:11:34;3.85;;;3.17;;
31037;SDS011;17702;47.590;7.666;2023-08-30T10:14:01;3.90;;;3.05;;
31037;SDS011;17702;47.590;7.666;2023-08-30T10:16:44;4.20;;;3.70;;
31037;SDS011;17702;47.590;7.666;2023-08-30T10:19:26;3.33;;;3.03;;
31037;SDS011;17702;47.590;7.666;2023-08-30T10:24:24;3.13;;;2.92;;
31037;SDS011;17702;47.590;7.666;2023-08-30T10:26:51;3.15;;;2.75;;
31037;SDS011;17702;47.590;7.666;2023-08-30T10:29:18;3.60;;;3.38;;
31037;SDS011;17702;47.590;7.666;2023-08-30T10:31:45;3.13;;;2.83;;
31037;SDS011;17702;47.590;7.666;2023-08-30T10:34:13;3.00;;;2.80;;
31037;SDS011;17702;47.590;7.666;2023-08-30T10:36:41;3.05;;;2.88;;
31037;SDS011;17702;47.590;7.666;2023-08-30T10:39:11;3.45;;;3.05;;
31037;SDS011;17702;47.590;7.666;2023-08-30T10:41:38;2.88;;;2.60;;
31037;SDS011;17702;47.590;7.666;2023-08-30T10:44:18;4.07;;;3.78;;
31037;SDS011;17702;47.590;7.666;2023-08-30T10:46:51;2.88;;;2.67;;
31037;SDS011;17702;47.590;7.666;2023-08-30T10:49:18;2.95;;;2.75;;
31037;SDS011;17702;47.590;7.666;2023-08-30T10:51:44;3.15;;;2.83;;
31037;SDS011;17702;47.590;7.666;2023-08-30T10:54:10;2.67;;;2.47;;
31037;SDS011;17702;47.590;7.666;2023-08-30T10:56:45;3.50;;;2.90;;
31037;SDS011;17702;47.590;7.666;2023-08-30T10:59:21;4.70;;;2.80;;
31037;SDS011;17702;47.590;7.666;2023-08-30T11:01:48;2.80;;;2.60;;
31037;SDS011;17702;47.590;7.666;2023-08-30T11:04:17;2.85;;;2.65;;
31037;SDS011;17702;47.590;7.666;2023-08-30T11:06:44;3.30;;;3.10;;
31037;SDS011;17702;47.590;7.666;2023-08-30T11:09:14;2.88;;;2.67;;
31037;SDS011;17702;47.590;7.666;2023-08-30T11:11:42;3.50;;;2.97;;
31037;SDS011;17702;47.590;7.666;2023-08-30T11:14:09;3.38;;;2.97;;
31037;SDS011;17702;47.590;7.666;2023-08-30T11:16:35;2.88;;;2.78;;
31037;SDS011;17702;47.590;7.666;2023-08-30T11:19:04;3.00;;;2.80;;
31037;SDS011;17702;47.590;7.666;2023-08-30T11:21:31;3.90;;;2.53;;
31037;SDS011;17702;47.590;7.666;2023-08-30T11:23:59;4.50;;;2.60;;
31037;SDS011;17702;47.590;7.666;2023-08-30T11:26:25;4.75;;;2.60;;
31037;SDS011;17702;47.590;7.666;2023-08-30T11:28:50;3.60;;;2.65;;
31037;SDS011;17702;47.590;7.666;2023-08-30T11:31:23;4.82;;;2.60;;
31037;SDS011;17702;47.590;7.666;2023-08-30T11:33:52;4.07;;;2.50;;
31037;SDS011;17702;47.590;7.666;2023-08-30T11:36:20;4.03;;;2.30;;
31037;SDS011;17702;47.590;7.666;2023-08-30T11:38:52;2.40;;;2.20;;
31037;SDS011;17702;47.590;7.666;2023-08-30T11:41:22;2.10;;;1.85;;
31037;SDS011;17702;47.590;7.666;2023-08-30T11:43:49;2.97;;;1.80;;
31037;SDS011;17702;47.590;7.666;2023-08-30T11:46:18;3.63;;;2.05;;
31037;SDS011;17702;47.590;7.666;2023-08-30T11:48:45;3.28;;;3.08;;
31037;SDS011;17702;47.590;7.666;2023-08-30T11:51:12;2.30;;;2.10;;
31037;SDS011;17702;47.590;7.666;2023-08-30T11:53:38;3.15;;;1.92;;
31037;SDS011;17702;47.590;7.666;2023-08-30T11:56:05;2.22;;;2.03;;
31037;SDS011;17702;47.590;7.666;2023-08-30T11:58:34;1.95;;;1.85;;
31037;SDS011;17702;47.590;7.666;2023-08-30T12:01:01;2.60;;;1.92;;
31037;SDS011;17702;47.590;7.666;2023-08-30T12:03:27;1.98;;;1.73;;
31037;SDS011;17702;47.590;7.666;2023-08-30T12:05:54;2.55;;;2.00;;
31037;SDS011;17702;47.590;7.666;2023-08-30T12:08:20;3.83;;;1.80;;
31037;SDS011;17702;47.590;7.666;2023-08-30T12:10:48;2.92;;;1.60;;
31037;SDS011;17702;47.590;7.666;2023-08-30T12:15:49;4.38;;;1.73;;
31037;SDS011;17702;47.590;7.666;2023-08-30T12:18:16;2.75;;;1.50;;
31037;SDS011;17702;47.590;7.666;2023-08-30T12:20:51;2.35;;;1.90;;
31037;SDS011;17702;47.590;7.666;2023-08-30T12:23:28;2.38;;;2.00;;
31037;SDS011;17702;47.590;7.666;2023-08-30T12:28:23;3.90;;;1.48;;
31037;SDS011;17702;47.590;7.666;2023-08-30T12:30:50;2.42;;;1.20;;
31037;SDS011;17702;47.590;7.666;2023-08-30T12:33:16;2.83;;;1.30;;
31037;SDS011;17702;47.590;7.666;2023-08-30T12:35:42;1.42;;;1.30;;
31037;SDS011;17702;47.590;7.666;2023-08-30T12:38:07;1.60;;;1.50;;
31037;SDS011;17702;47.590;7.666;2023-08-30T12:40:34;1.60;;;1.50;;
31037;SDS011;17702;47.590;7.666;2023-08-30T12:43:00;2.45;;;1.15;;
31037;SDS011;17702;47.590;7.666;2023-08-30T12:45:26;1.60;;;1.50;;
31037;SDS011;17702;47.590;7.666;2023-08-30T12:47:51;3.38;;;1.50;;
31037;SDS011;17702;47.590;7.666;2023-08-30T12:50:17;6.57;;;1.75;;
31037;SDS011;17702;47.590;7.666;2023-08-30T12:52:42;6.28;;;1.65;;
31037;SDS011;17702;47.590;7.666;2023-08-30T12:55:08;1.60;;;1.30;;
31037;SDS011;17702;47.590;7.666;2023-08-30T12:57:34;1.58;;;1.45;;
31037;SDS011;17702;47.590;7.666;2023-08-30T12:59:59;18.10;;;11.43;;
31037;SDS011;17702;47.590;7.666;2023-08-30T13:02:25;6.32;;;1.70;;
31037;SDS011;17702;47.590;7.666;2023-08-30T13:04:50;1.33;;;1.13;;
31037;SDS011;17702;47.590;7.666;2023-08-30T13:07:16;1.40;;;1.30;;
31037;SDS011;17702;47.590;7.666;2023-08-30T13:09:42;2.35;;;1.00;;
31037;SDS011;17702;47.590;7.666;2023-08-30T13:12:07;2.53;;;1.27;;
31037;SDS011;17702;47.590;7.666;2023-08-30T13:14:33;3.70;;;1.25;;
31037;SDS011;17702;47.590;7.666;2023-08-30T13:16:59;1.17;;;1.00;;
31037;SDS011;17702;47.590;7.666;2023-08-30T13:19:24;3.63;;;1.48;;
31037;SDS011;17702;47.590;7.666;2023-08-30T13:21:50;1.73;;;1.50;;
31037;SDS011;17702;47.590;7.666;2023-08-30T13:24:16;3.22;;;1.30;;
31037;SDS011;17702;47.590;7.666;2023-08-30T13:26:41;2.85;;;1.20;;
31037;SDS011;17702;47.590;7.666;2023-08-30T13:29:07;2.00;;;1.48;;
31037;SDS011;17702;47.590;7.666;2023-08-30T13:31:32;2.45;;;1.40;;
31037;SDS011;17702;47.590;7.666;2023-08-30T13:33:58;2.70;;;1.38;;
31037;SDS011;17702;47.590;7.666;2023-08-30T13:36:24;1.20;;;1.10;;
31037;SDS011;17702;47.590;7.666;2023-08-30T13:38:50;1.77;;;1.33;;
31037;SDS011;17702;47.590;7.666;2023-08-30T13:41:16;2.90;;;1.40;;
31037;SDS011;17702;47.590;7.666;2023-08-30T13:43:41;2.70;;;1.40;;
31037;SDS011;17702;47.590;7.666;2023-08-30T13:46:07;1.75;;;1.40;;
31037;SDS011;17702;47.590;7.666;2023-08-30T13:48:32;4.00;;;2.17;;
31037;SDS011;17702;47.590;7.666;2023-08-30T13:50:58;2.78;;;1.35;;
31037;SDS011;17702;47.590;7.666;2023-08-30T13:53:23;1.83;;;1.40;;
31037;SDS011;17702;47.590;7.666;2023-08-30T13:55:50;1.73;;;1.15;;
31037;SDS011;17702;47.590;7.666;2023-08-30T13:58:16;2.38;;;1.50;;
31037;SDS011;17702;47.590;7.666;2023-08-30T14:00:42;1.55;;;1.30;;
31037;SDS011;17702;47.590;7.666;2023-08-30T14:03:09;1.60;;;1.38;;
31037;SDS011;17702;47.590;7.666;2023-08-30T14:05:35;1.48;;;1.38;;
31037;SDS011;17702;47.590;7.666;2023-08-30T14:08:00;1.40;;;1.30;;
31037;SDS011;17702;47.590;7.666;2023-08-30T14:10:26;2.53;;;1.65;;
31037;SDS011;17702;47.590;7.666;2023-08-30T14:12:51;1.40;;;1.30;;
31037;SDS011;17702;47.590;7.666;2023-08-30T14:15:17;2.35;;;1.27;;
31037;SDS011;17702;47.590;7.666;2023-08-30T14:17:43;1.42;;;1.30;;
31037;SDS011;17702;47.590;7.666;2023-08-30T14:20:09;2.85;;;1.27;;
31037;SDS011;17702;47.590;7.666;2023-08-30T14:22:34;2.10;;;1.10;;
31037;SDS011;17702;47.590;7.666;2023-08-30T14:25:01;1.58;;;1.25;;
31037;SDS011;17702;47.590;7.666;2023-08-30T14:27:27;2.40;;;1.40;;
31037;SDS011;17702;47.590;7.666;2023-08-30T14:29:53;6.60;;;1.70;;
31037;SDS011;17702;47.590;7.666;2023-08-30T14:32:18;3.97;;;2.03;;
31037;SDS011;17702;47.590;7.666;2023-08-30T14:34:44;0.93;;;0.93;;
31037;SDS011;17702;47.590;7.666;2023-08-30T14:37:10;2.05;;;0.95;;
31037;SDS011;17702;47.590;7.666;2023-08-30T14:39:36;1.48;;;1.10;;
31037;SDS011;17702;47.590;7.666;2023-08-30T14:42:01;2.67;;;1.00;;
31037;SDS011;17702;47.590;7.666;2023-08-30T14:44:27;1.63;;;1.27;;
31037;SDS011;17702;47.590;7.666;2023-08-30T14:46:53;1.08;;;1.08;;
31037;SDS011;17702;47.590;7.666;2023-08-30T14:49:19;1.73;;;1.63;;